createdAt,value
2019-02-25T00:01:01.672Z,96943.44
2019-02-25T00:03:31.065Z,96944.53
2019-02-25T00:06:00.432Z,96950.14
2019-02-25T00:08:29.832Z,96953.86
2019-02-25T00:10:59.304Z,96946.49
2019-02-25T00:13:28.880Z,96948.70
2019-02-25T00:15:58.247Z,96955.48
2019-02-25T00:18:27.611Z,96941.06
2019-02-25T00:20:57.059Z,96944.52
2019-02-25T00:23:26.439Z,96938.65
2019-02-25T00:25:55.765Z,96938.09
2019-02-25T00:28:25.194Z,96932.94
2019-02-25T00:30:54.574Z,96927.86
2019-02-25T00:33:23.999Z,96929.27
2019-02-25T00:35:53.424Z,96940.49
2019-02-25T00:38:22.758Z,96924.61
2019-02-25T00:40:52.190Z,96923.54
2019-02-25T00:43:21.535Z,96920.69
2019-02-25T00:45:50.890Z,96927.84
2019-02-25T00:48:20.257Z,96918.69
2019-02-25T00:50:49.857Z,96912.58
2019-02-25T00:53:19.207Z,96914.08
2019-02-25T00:55:48.586Z,96911.75
2019-02-25T00:58:17.995Z,96901.27
2019-02-25T01:00:47.346Z,96902.61
2019-02-25T01:03:16.719Z,96899.85
2019-02-25T01:05:46.075Z,96905.40
2019-02-25T01:08:15.504Z,96894.20
2019-02-25T01:10:44.904Z,96894.95
2019-02-25T01:13:14.455Z,96890.86
2019-02-25T01:15:43.833Z,96887.03
2019-02-25T01:18:13.216Z,96888.64
2019-02-25T01:20:42.728Z,96890.63
2019-02-25T01:23:12.172Z,96884.36
2019-02-25T01:25:41.526Z,96875.15
2019-02-25T01:28:11.136Z,96882.52
2019-02-25T01:30:40.538Z,96883.10
2019-02-25T01:33:10.101Z,96885.11
2019-02-25T01:35:39.443Z,96886.81
2019-02-25T01:38:08.818Z,96882.12
2019-02-25T01:40:38.165Z,96885.61
2019-02-25T01:43:07.511Z,96885.17
2019-02-25T01:45:36.895Z,96874.78
2019-02-25T01:48:06.238Z,96874.45
2019-02-25T01:50:35.599Z,96866.12
2019-02-25T01:53:04.983Z,96871.80
2019-02-25T01:55:34.369Z,96862.12
2019-02-25T01:58:03.721Z,96861.72
2019-02-25T02:00:33.191Z,96872.04
2019-02-25T02:03:02.620Z,96870.30
2019-02-25T02:05:31.989Z,96874.37
2019-02-25T02:08:01.356Z,96878.92
2019-02-25T02:10:30.721Z,96876.20
2019-02-25T02:13:00.059Z,96881.22
2019-02-25T02:15:29.445Z,96878.20
2019-02-25T02:17:58.792Z,96876.90
2019-02-25T02:20:28.204Z,96878.83
2019-02-25T02:22:57.559Z,96888.62
2019-02-25T02:25:26.907Z,96887.56
2019-02-25T02:27:56.242Z,96897.88
2019-02-25T02:30:25.631Z,96903.04
2019-02-25T02:32:55.844Z,96899.37
2019-02-25T02:35:25.175Z,96895.20
2019-02-25T02:37:54.545Z,96902.55
2019-02-25T02:40:23.956Z,96898.05
2019-02-25T02:42:54.867Z,96890.94
2019-02-25T02:45:30.910Z,96888.53
2019-02-25T02:48:06.659Z,96880.67
2019-02-25T02:50:36.024Z,96881.64
2019-02-25T02:53:05.747Z,96880.46
2019-02-25T02:55:35.115Z,96877.81
2019-02-25T02:58:04.457Z,96892.52
2019-02-25T03:00:33.798Z,96888.02
2019-02-25T03:03:03.128Z,96891.48
2019-02-25T03:05:32.622Z,96892.67
2019-02-25T03:08:01.955Z,96889.73
2019-02-25T03:10:31.349Z,96887.33
2019-02-25T03:13:00.748Z,96900.22
2019-02-25T03:15:30.090Z,96902.66
2019-02-25T03:17:59.442Z,96898.89
2019-02-25T03:20:28.814Z,96897.59
2019-02-25T03:22:58.171Z,96900.57
2019-02-25T03:25:27.497Z,96910.36
2019-02-25T03:27:56.851Z,96915.45
2019-02-25T03:30:26.246Z,96921.00
2019-02-25T03:32:55.696Z,96907.42
2019-02-25T03:35:25.105Z,96911.17
2019-02-25T03:37:54.476Z,96917.68
2019-02-25T03:40:23.896Z,96911.63
2019-02-25T03:42:53.239Z,96909.32
2019-02-25T03:45:22.635Z,96912.23
2019-02-25T03:47:52.018Z,96914.63
2019-02-25T03:50:21.484Z,96911.38
2019-02-25T03:52:50.815Z,96907.89
2019-02-25T03:55:20.192Z,96906.09
2019-02-25T03:57:49.817Z,96911.66
2019-02-25T04:00:20.951Z,96904.46
2019-02-25T04:02:50.485Z,96903.16
2019-02-25T04:05:19.864Z,96909.35
2019-02-25T04:07:49.665Z,96908.17
2019-02-25T04:10:19.023Z,96902.61
2019-02-25T04:12:48.372Z,96907.53
2019-02-25T04:15:21.457Z,96913.76
2019-02-25T04:17:50.800Z,96914.22
2019-02-25T04:20:20.187Z,96912.70
2019-02-25T04:22:49.564Z,96914.34
2019-02-25T04:25:18.888Z,96913.27
2019-02-25T04:27:48.234Z,96902.78
2019-02-25T04:30:17.714Z,96912.20
2019-02-25T04:32:47.112Z,96905.17
2019-02-25T04:35:17.153Z,96903.97
2019-02-25T04:37:46.485Z,96897.14
2019-02-25T04:40:16.064Z,96900.61
2019-02-25T04:42:45.414Z,96901.91
2019-02-25T04:45:16.545Z,96902.73
2019-02-25T04:47:45.917Z,96903.27
2019-02-25T04:50:15.435Z,96909.53
2019-02-25T04:52:44.780Z,96898.25
2019-02-25T04:55:14.187Z,96906.80
2019-02-25T04:57:43.597Z,96911.44
2019-02-25T05:00:14.893Z,96912.94
2019-02-25T05:02:44.264Z,96904.53
2019-02-25T05:05:13.658Z,96904.89
2019-02-25T05:07:42.991Z,96909.69
2019-02-25T05:10:13.867Z,96916.44
2019-02-25T05:12:48.273Z,96917.53
2019-02-25T05:15:18.752Z,96907.36
2019-02-25T05:17:48.154Z,96909.05
2019-02-25T05:20:17.568Z,96909.19
2019-02-25T05:22:46.948Z,96911.72
2019-02-25T05:25:16.676Z,96903.64
2019-02-25T05:27:46.072Z,96907.51
2019-02-25T05:30:15.481Z,96901.88
2019-02-25T05:32:44.843Z,96907.39
2019-02-25T05:35:14.370Z,96904.34
2019-02-25T05:37:43.825Z,96899.31
2019-02-25T05:40:14.860Z,96888.12
2019-02-25T05:42:44.203Z,96891.00
2019-02-25T05:45:13.988Z,96887.27
2019-02-25T05:47:44.388Z,96892.42
2019-02-25T05:50:14.653Z,96891.76
2019-02-25T05:52:44.040Z,96880.86
2019-02-25T05:55:13.861Z,96892.36
2019-02-25T05:57:43.505Z,96900.63
2019-02-25T06:00:20.178Z,96899.26
2019-02-25T06:02:49.597Z,96900.17
2019-02-25T06:05:18.948Z,96900.93
2019-02-25T06:07:48.324Z,96896.91
2019-02-25T06:10:17.698Z,96905.41
2019-02-25T06:12:47.083Z,96901.80
2019-02-25T06:15:18.815Z,96897.86
2019-02-25T06:17:48.238Z,96910.04
2019-02-25T06:20:17.930Z,96911.61
2019-02-25T06:22:47.364Z,96922.69
2019-02-25T06:25:16.880Z,96909.73
2019-02-25T06:27:46.290Z,96910.31
2019-02-25T06:30:17.048Z,96909.02
2019-02-25T06:32:46.452Z,96494.39
2019-02-25T06:35:16.551Z,96897.11
2019-02-25T06:37:45.991Z,96907.69
2019-02-25T06:40:16.247Z,96901.60
2019-02-25T06:42:45.887Z,96895.65
2019-02-25T06:45:16.766Z,96890.77
2019-02-25T06:47:46.208Z,96897.34
2019-02-25T06:50:15.596Z,96897.47
2019-02-25T06:52:45.499Z,96898.47
2019-02-25T06:55:15.491Z,96902.88
2019-02-25T06:57:44.852Z,96914.59
2019-02-25T07:00:16.785Z,96917.61
2019-02-25T07:02:46.320Z,96919.24
2019-02-25T07:05:35.224Z,96925.80
2019-02-25T07:08:11.095Z,96921.42
2019-02-25T07:10:58.216Z,96914.44
2019-02-25T07:13:52.345Z,96918.64
2019-02-25T07:16:43.791Z,96903.41
2019-02-25T07:19:37.892Z,96906.09
2019-02-25T07:22:38.515Z,96893.57
2019-02-25T07:25:33.609Z,96893.57
2019-02-25T07:28:22.053Z,96899.89
2019-02-25T07:31:13.281Z,96885.05
2019-02-25T07:34:13.731Z,96884.88
2019-02-25T07:37:10.974Z,96882.08
2019-02-25T07:39:47.336Z,96900.53
2019-02-25T07:42:53.977Z,96900.59
2019-02-25T07:45:36.429Z,96895.20
2019-02-25T07:48:14.811Z,96890.33
2019-02-25T07:50:57.315Z,96895.33
2019-02-25T07:53:54.752Z,96896.89
2019-02-25T07:56:42.723Z,96895.19
2019-02-25T07:59:43.199Z,96901.89
2019-02-25T08:02:30.177Z,96905.20
2019-02-25T08:05:11.471Z,96905.13
2019-02-25T08:08:15.154Z,96893.97
2019-02-25T08:11:12.654Z,96883.84
2019-02-25T08:14:16.148Z,96875.13
2019-02-25T08:16:51.489Z,96878.22
2019-02-25T08:19:40.275Z,96881.61
2019-02-25T08:22:27.427Z,96877.52
2019-02-25T08:25:29.016Z,96884.47
2019-02-25T08:28:23.077Z,96887.03
2019-02-25T08:31:23.713Z,96887.09
2019-02-25T08:34:18.341Z,96885.94
2019-02-25T08:37:18.770Z,96878.78
2019-02-25T08:39:59.089Z,96882.52
2019-02-25T08:42:46.407Z,96878.69
2019-02-25T08:45:33.838Z,96872.47
2019-02-25T08:48:16.849Z,96878.59
2019-02-25T08:50:46.187Z,96875.33
2019-02-25T08:53:15.580Z,96870.59
2019-02-25T08:55:44.917Z,96872.25
2019-02-25T08:58:14.262Z,96869.69
2019-02-25T09:00:43.585Z,96876.36
2019-02-25T09:03:12.913Z,96870.58
2019-02-25T09:05:42.242Z,96878.80
2019-02-25T09:08:11.710Z,96873.56
2019-02-25T09:10:41.126Z,96870.10
2019-02-25T09:13:10.462Z,96876.33
2019-02-25T09:15:39.805Z,96864.55
2019-02-25T09:18:07.481Z,96871.24
2019-02-25T09:20:36.871Z,96883.49
2019-02-25T09:23:06.531Z,96882.24
2019-02-25T09:25:35.885Z,96874.84
2019-02-25T09:28:05.225Z,96873.97
2019-02-25T09:30:34.565Z,96876.23
2019-02-25T09:33:04.020Z,96880.33
2019-02-25T09:35:33.367Z,96881.67
2019-02-25T09:38:02.700Z,96884.37
2019-02-25T09:40:32.086Z,96886.38
2019-02-25T09:43:01.454Z,96883.58
2019-02-25T09:45:30.858Z,96885.08
2019-02-25T09:48:02.357Z,96886.90
2019-02-25T09:50:31.754Z,96886.64
2019-02-25T09:53:04.214Z,96880.28
2019-02-25T09:55:33.014Z,96878.42
2019-02-25T09:58:02.354Z,96873.23
2019-02-25T10:00:31.767Z,96869.46
2019-02-25T10:03:01.117Z,96877.99
2019-02-25T10:05:31.045Z,96881.67
2019-02-25T10:08:00.447Z,96874.23
2019-02-25T10:10:29.863Z,96873.98
2019-02-25T10:12:59.241Z,96870.73
2019-02-25T10:15:28.579Z,96862.77
2019-02-25T10:17:57.925Z,96867.50
2019-02-25T10:20:27.275Z,96857.69
2019-02-25T10:22:56.633Z,96848.78
2019-02-25T10:25:25.955Z,96851.95
2019-02-25T10:27:55.278Z,96845.94
2019-02-25T10:30:26.340Z,96840.48
2019-02-25T10:32:55.650Z,96842.78
2019-02-25T10:35:27.065Z,96844.46
2019-02-25T10:37:56.728Z,96838.03
2019-02-25T10:40:27.788Z,96839.89
2019-02-25T10:42:57.113Z,96839.31
2019-02-25T10:45:26.509Z,96830.37
2019-02-25T10:47:58.688Z,96831.49
2019-02-25T10:50:28.688Z,96838.95
2019-02-25T10:53:03.406Z,96833.81
2019-02-25T10:55:32.047Z,96813.28
2019-02-25T10:58:03.670Z,96805.09
2019-02-25T11:00:32.900Z,96806.87
2019-02-25T11:03:02.275Z,96807.83
2019-02-25T11:05:31.635Z,96799.48
2019-02-25T11:08:03.278Z,96795.80
2019-02-25T11:10:35.976Z,96792.12
2019-02-25T11:13:05.959Z,96788.62
2019-02-25T11:15:37.441Z,96778.83
2019-02-25T11:18:08.542Z,96788.97
2019-02-25T11:20:38.086Z,96791.19
2019-02-25T11:23:07.641Z,96788.56
2019-02-25T11:25:37.130Z,96779.06
2019-02-25T11:28:07.715Z,96781.05
2019-02-25T11:30:37.986Z,96777.05
2019-02-25T11:33:07.350Z,96769.50
2019-02-25T11:35:38.820Z,96763.33
2019-02-25T11:38:07.781Z,96761.00
2019-02-25T11:40:38.436Z,96754.83
2019-02-25T11:43:08.381Z,96750.92
2019-02-25T11:45:39.144Z,96757.59
2019-02-25T11:48:08.625Z,96747.07
2019-02-25T11:50:38.141Z,96753.16
2019-02-25T11:53:07.557Z,96744.70
2019-02-25T11:55:36.945Z,96741.32
2019-02-25T11:58:06.684Z,96744.35
2019-02-25T12:00:36.146Z,96748.72
2019-02-25T12:03:05.735Z,96745.17
2019-02-25T12:05:35.121Z,96746.89
2019-02-25T12:08:06.911Z,96752.42
2019-02-25T12:10:39.365Z,96745.48
2019-02-25T12:13:08.728Z,96740.67
2019-02-25T12:15:38.198Z,96731.83
2019-02-25T12:18:07.524Z,96733.34
2019-02-25T12:20:36.921Z,96729.03
2019-02-25T12:23:06.357Z,96740.58
2019-02-25T12:25:35.899Z,96727.62
2019-02-25T12:28:05.301Z,96731.95
2019-02-25T12:30:35.561Z,96722.77
2019-02-25T12:33:04.938Z,96715.33
2019-02-25T12:35:34.233Z,96716.98
2019-02-25T12:38:03.576Z,96707.41
2019-02-25T12:40:32.931Z,96706.33
2019-02-25T12:43:02.254Z,96701.22
2019-02-25T12:45:31.769Z,96702.77
2019-02-25T12:48:01.107Z,96687.59
2019-02-25T12:50:30.804Z,96688.31
2019-02-25T12:53:00.144Z,96683.30
2019-02-25T12:55:29.483Z,96676.27
2019-02-25T12:57:58.854Z,96680.72
2019-02-25T13:00:28.145Z,96673.89
2019-02-25T13:02:57.458Z,96675.18
2019-02-25T13:05:26.847Z,96675.69
2019-02-25T13:07:56.144Z,96668.09
2019-02-25T13:10:25.513Z,96667.57
2019-02-25T13:12:54.901Z,96667.69
2019-02-25T13:15:24.210Z,96669.58
2019-02-25T13:17:53.595Z,96677.80
2019-02-25T13:20:22.930Z,96678.66
2019-02-25T13:22:52.300Z,96677.07
2019-02-25T13:25:21.655Z,96677.36
2019-02-25T13:27:52.031Z,96636.95
2019-02-25T13:30:22.077Z,96667.61
2019-02-25T13:32:51.470Z,96654.06
2019-02-25T13:35:20.855Z,96649.98
2019-02-25T13:37:50.197Z,96652.70
2019-02-25T13:40:19.678Z,96660.15
2019-02-25T13:42:49.238Z,96654.36
2019-02-25T13:45:18.615Z,96646.80
2019-02-25T13:47:47.983Z,96653.64
2019-02-25T13:50:17.430Z,96649.94
2019-02-25T13:52:48.214Z,96658.62
2019-02-25T13:55:17.969Z,96661.56
2019-02-25T13:57:47.339Z,96651.80
2019-02-25T14:00:18.157Z,96654.69
2019-02-25T14:02:47.638Z,96654.43
2019-02-25T14:05:17.074Z,96654.08
2019-02-25T14:07:46.633Z,96656.03
2019-02-25T14:10:16.302Z,96653.19
2019-02-25T14:12:45.692Z,96653.82
2019-02-25T14:15:16.036Z,96645.61
2019-02-25T14:17:45.460Z,96645.58
2019-02-25T14:20:16.532Z,96648.78
2019-02-25T14:22:45.980Z,96642.75
2019-02-25T14:25:19.735Z,96640.33
2019-02-25T14:27:48.808Z,96636.91
2019-02-25T14:30:20.498Z,96625.66
2019-02-25T14:32:53.081Z,96622.69
2019-02-25T14:35:22.377Z,96612.23
2019-02-25T14:37:52.043Z,96609.66
2019-02-25T14:40:23.580Z,96619.20
2019-02-25T14:42:54.723Z,96619.15
2019-02-25T14:45:26.499Z,96614.48
2019-02-25T14:47:59.681Z,96611.80
2019-02-25T14:50:27.132Z,96611.80
2019-02-25T14:52:56.690Z,96612.03
2019-02-25T14:55:26.416Z,96612.03
2019-02-25T14:57:59.968Z,96603.08
2019-02-25T15:00:29.021Z,96599.40
2019-02-25T15:02:57.988Z,96598.95
2019-02-25T15:05:27.478Z,96598.95
2019-02-25T15:07:56.848Z,96599.96
2019-02-25T15:10:29.007Z,96593.66
2019-02-25T15:12:59.098Z,96599.11
2019-02-25T15:15:29.403Z,96588.17
2019-02-25T15:17:58.759Z,96600.87
2019-02-25T15:20:28.923Z,96586.38
2019-02-25T15:22:58.559Z,96580.41
2019-02-25T15:25:31.226Z,96586.54
2019-02-25T15:27:59.333Z,96591.41
2019-02-25T15:30:30.696Z,96590.49
2019-02-25T15:33:00.371Z,96582.89
2019-02-25T15:35:32.382Z,96596.89
2019-02-25T15:38:02.629Z,96592.94
2019-02-25T15:40:32.067Z,96588.13
2019-02-25T15:43:10.445Z,96594.63
2019-02-25T15:45:40.679Z,96596.88
2019-02-25T15:48:14.416Z,96598.86
2019-02-25T15:50:46.106Z,96598.34
2019-02-25T15:53:16.213Z,96591.91
2019-02-25T15:55:45.611Z,96597.52
2019-02-25T15:58:15.186Z,96600.28
2019-02-25T16:00:46.648Z,96605.16
2019-02-25T16:03:18.084Z,96604.41
2019-02-25T16:05:47.277Z,96603.79
2019-02-25T16:08:19.433Z,96596.13
2019-02-25T16:10:49.604Z,96600.67
2019-02-25T16:13:21.617Z,96608.05
2019-02-25T16:15:51.734Z,96604.83
2019-02-25T16:18:22.717Z,96604.34
2019-02-25T16:20:52.532Z,96601.42
2019-02-25T16:23:22.284Z,96600.47
2019-02-25T16:25:53.176Z,96597.75
2019-02-25T16:28:23.059Z,96594.18
2019-02-25T16:30:52.382Z,96598.59
2019-02-25T16:33:21.891Z,96598.14
2019-02-25T16:35:51.257Z,96602.16
2019-02-25T16:38:23.053Z,96608.08
2019-02-25T16:40:56.695Z,96607.20
2019-02-25T16:43:25.610Z,96619.73
2019-02-25T16:45:55.053Z,96608.82
2019-02-25T16:48:26.443Z,96608.56
2019-02-25T16:50:55.516Z,96605.02
2019-02-25T16:53:25.071Z,96603.47
2019-02-25T16:55:54.439Z,96599.70
2019-02-25T16:58:25.032Z,96603.04
2019-02-25T17:00:58.089Z,96599.27
2019-02-25T17:03:26.114Z,96591.48
2019-02-25T17:05:55.591Z,96589.73
2019-02-25T17:08:28.110Z,96591.29
2019-02-25T17:10:57.831Z,96591.16
2019-02-25T17:13:29.329Z,96581.84
2019-02-25T17:15:59.533Z,96585.36
2019-02-25T17:18:30.873Z,96576.02
2019-02-25T17:21:00.427Z,96582.91
2019-02-25T17:23:30.299Z,96575.03
2019-02-25T17:26:02.001Z,96573.84
2019-02-25T17:28:32.284Z,96580.09
2019-02-25T17:31:01.900Z,96576.19
2019-02-25T17:33:32.599Z,96573.58
2019-02-25T17:36:02.875Z,96570.53
2019-02-25T17:38:32.200Z,96573.06
2019-02-25T17:41:04.013Z,96570.41
2019-02-25T17:43:34.249Z,96571.66
2019-02-25T17:46:06.470Z,96569.89
2019-02-25T17:48:35.655Z,96565.60
2019-02-25T17:51:04.995Z,96570.37
2019-02-25T17:53:34.359Z,96568.78
2019-02-25T17:56:04.635Z,96581.85
2019-02-25T17:58:35.860Z,96572.47
2019-02-25T18:01:05.797Z,96563.34
2019-02-25T18:03:35.246Z,96557.03
2019-02-25T18:06:05.291Z,96557.03
2019-02-25T18:08:37.133Z,96553.05
2019-02-25T18:11:07.020Z,96550.78
2019-02-25T18:13:36.389Z,96550.38
2019-02-25T18:16:05.754Z,96545.63
2019-02-25T18:18:36.626Z,96543.45
2019-02-25T18:21:08.316Z,96540.54
2019-02-25T18:23:37.594Z,96543.53
2019-02-25T18:26:07.220Z,96535.56
2019-02-25T18:28:37.462Z,96539.07
2019-02-25T18:31:10.847Z,96538.42
2019-02-25T18:33:39.474Z,96539.66
2019-02-25T18:36:09.188Z,96530.58
2019-02-25T18:38:40.080Z,96527.97
2019-02-25T18:41:09.503Z,96531.39
2019-02-25T18:43:38.893Z,96530.66
2019-02-25T18:46:08.234Z,96537.86
2019-02-25T18:48:38.289Z,96531.33
2019-02-25T18:51:08.025Z,96539.58
2019-02-25T18:53:37.955Z,96534.54
2019-02-25T18:56:11.314Z,96530.72
2019-02-25T18:58:39.589Z,96535.83
2019-02-25T19:01:11.323Z,96533.84
2019-02-25T19:03:42.230Z,96542.56
2019-02-25T19:06:11.660Z,96534.70
2019-02-25T19:08:43.271Z,96533.89
2019-02-25T19:11:13.290Z,96538.12
2019-02-25T19:13:45.823Z,96538.53
2019-02-25T19:16:15.769Z,96534.85
2019-02-25T19:18:47.303Z,96531.53
2019-02-25T19:21:17.091Z,96529.05
2019-02-25T19:23:48.467Z,96514.30
2019-02-25T19:26:21.825Z,96518.51
2019-02-25T19:28:52.477Z,96517.09
2019-02-25T19:31:23.910Z,96508.39
2019-02-25T19:33:53.898Z,96508.79
2019-02-25T19:36:25.696Z,96512.30
2019-02-25T19:38:54.497Z,96513.23
2019-02-25T19:41:29.555Z,96514.55
2019-02-25T19:43:59.450Z,96517.92
2019-02-25T19:46:28.942Z,96518.84
2019-02-25T19:48:58.352Z,96519.05
2019-02-25T19:51:29.814Z,96523.79
2019-02-25T19:54:02.241Z,96529.61
2019-02-25T19:56:32.468Z,96525.47
2019-02-25T19:59:03.720Z,96523.31
2019-02-25T20:01:33.108Z,96529.36
2019-02-25T20:04:06.367Z,96531.73
2019-02-25T20:06:34.431Z,96524.69
2019-02-25T20:09:07.493Z,96526.02
2019-02-25T20:11:37.119Z,96519.63
2019-02-25T20:14:07.343Z,96520.23
2019-02-25T20:16:37.042Z,96523.47
2019-02-25T20:19:06.877Z,96523.13
2019-02-25T20:21:36.375Z,96521.34
2019-02-25T20:24:14.195Z,96518.31
2019-02-25T20:26:41.384Z,96516.86
2019-02-25T20:29:12.653Z,96512.64
2019-02-25T20:31:41.848Z,96503.17
2019-02-25T20:34:11.261Z,96507.35
2019-02-25T20:36:40.723Z,96500.09
2019-02-25T20:39:10.086Z,96496.65
2019-02-25T20:41:39.474Z,96499.35
2019-02-25T20:44:08.910Z,96504.06
2019-02-25T20:46:38.718Z,96508.77
2019-02-25T20:49:08.636Z,96510.69
2019-02-25T20:51:38.141Z,96509.42
2019-02-25T20:54:08.935Z,96511.60
2019-02-25T20:56:38.630Z,96506.56
2019-02-25T20:59:09.857Z,96500.44
2019-02-25T21:01:42.286Z,96498.17
2019-02-25T21:04:11.858Z,96480.78
2019-02-25T21:06:42.363Z,96483.19
2019-02-25T21:09:12.622Z,96485.98
2019-02-25T21:11:42.028Z,96485.41
2019-02-25T21:14:11.420Z,96484.19
2019-02-25T21:16:40.863Z,96490.67
2019-02-25T21:19:12.550Z,96488.92
2019-02-25T21:21:42.000Z,96495.28
2019-02-25T21:24:13.590Z,96492.14
2019-02-25T21:26:42.483Z,96494.68
2019-02-25T21:29:11.912Z,96497.00
2019-02-25T21:31:43.219Z,96494.05
2019-02-25T21:34:15.152Z,96489.96
2019-02-25T21:36:43.466Z,96493.03
2019-02-25T21:39:14.653Z,96485.78
2019-02-25T21:41:45.714Z,96480.59
2019-02-25T21:44:18.845Z,96467.00
2019-02-25T21:46:49.549Z,96473.98
2019-02-25T21:49:17.500Z,96477.65
2019-02-25T21:51:48.035Z,96471.90
2019-02-25T21:54:17.691Z,96476.84
2019-02-25T21:56:47.054Z,96476.62
2019-02-25T21:59:17.534Z,96480.59
2019-02-25T22:01:47.211Z,96472.71
2019-02-25T22:04:17.997Z,96473.61
2019-02-25T22:06:50.997Z,96472.22
2019-02-25T22:09:21.175Z,96468.36
2019-02-25T22:11:49.948Z,96468.09
2019-02-25T22:14:21.588Z,96464.63
2019-02-25T22:16:52.688Z,96472.13
2019-02-25T22:19:21.780Z,96473.80
2019-02-25T22:21:53.528Z,96481.44
2019-02-25T22:24:24.791Z,96479.61
2019-02-25T22:26:54.160Z,96478.17
2019-02-25T22:29:24.390Z,96471.28
2019-02-25T22:31:53.788Z,96469.48
2019-02-25T22:34:25.245Z,96472.64
2019-02-25T22:36:55.956Z,96469.72
2019-02-25T22:39:27.375Z,96478.92
2019-02-25T22:41:56.636Z,96485.78
2019-02-25T22:44:27.032Z,96490.20
2019-02-25T22:46:57.085Z,96490.95
2019-02-25T22:49:28.338Z,96485.72
2019-02-25T22:51:58.243Z,96485.94
2019-02-25T22:54:28.892Z,96492.22
2019-02-25T22:56:58.348Z,96491.16
2019-02-25T22:59:27.723Z,96489.63
2019-02-25T23:01:57.089Z,96483.73
2019-02-25T23:04:26.610Z,96479.61
2019-02-25T23:06:55.892Z,96472.94
2019-02-25T23:09:25.870Z,96469.41
2019-02-25T23:11:55.594Z,96481.32
2019-02-25T23:14:24.968Z,96474.88
2019-02-25T23:16:54.650Z,96476.78
2019-02-25T23:19:23.999Z,96474.44
2019-02-25T23:21:53.530Z,96480.06
2019-02-25T23:24:25.951Z,96477.53
2019-02-25T23:26:55.218Z,96474.19
2019-02-25T23:29:28.247Z,96477.84
2019-02-25T23:31:56.375Z,96472.73
2019-02-25T23:34:25.733Z,96471.98
2019-02-25T23:36:56.230Z,96473.01
2019-02-25T23:39:25.761Z,96461.41
2019-02-25T23:41:55.080Z,96462.42
2019-02-25T23:44:24.715Z,96460.66
2019-02-25T23:46:57.906Z,96455.88
2019-02-25T23:49:27.506Z,96465.50
2019-02-25T23:51:56.395Z,96449.56
2019-02-25T23:54:27.924Z,96451.52
2019-02-25T23:56:57.882Z,96441.56
2019-02-25T23:59:28.033Z,96433.42
